Aviation Digital Data Service (ADDS)

Output produced by METARs form (2010 UTC 18 January 2017)
found at http://aviationweather.gov/adds/metars/
 
KINT 181724Z 1818/1918 32010KT P6SM SKC 
     TEMPO 1818/1822 32014G22KT 
     FM190000 VRB03KT P6SM SKC